sensor_id;sensor_type;location;lat;lon;timestamp;pressure;altitude;pressure_sealevel;temperature
67353;BMP180;54238;52.278;21.056;2022-10-17T00:02:20;101363.20;;;17.00
67353;BMP180;54238;52.278;21.056;2022-10-17T00:04:52;101364.60;;;17.00
67353;BMP180;54238;52.278;21.056;2022-10-17T00:07:21;101368.20;;;17.00
67353;BMP180;54238;52.278;21.056;2022-10-17T00:09:51;101365.40;;;17.00
67353;BMP180;54238;52.278;21.056;2022-10-17T00:12:23;101369.00;;;16.98
67353;BMP180;54238;52.278;21.056;2022-10-17T00:14:53;101372.80;;;16.90
67353;BMP180;54238;52.278;21.056;2022-10-17T00:17:24;101377.00;;;16.90
67353;BMP180;54238;52.278;21.056;2022-10-17T00:19:51;101373.80;;;16.90
67353;BMP180;54238;52.278;21.056;2022-10-17T00:22:18;101377.00;;;16.90
67353;BMP180;54238;52.278;21.056;2022-10-17T00:24:50;101371.40;;;16.90
67353;BMP180;54238;52.278;21.056;2022-10-17T00:27:19;101369.40;;;16.90
67353;BMP180;54238;52.278;21.056;2022-10-17T00:29:50;101371.00;;;16.90
67353;BMP180;54238;52.278;21.056;2022-10-17T00:32:21;101366.00;;;16.90
67353;BMP180;54238;52.278;21.056;2022-10-17T00:34:51;101366.40;;;16.90
67353;BMP180;54238;52.278;21.056;2022-10-17T00:37:18;101365.60;;;16.90
67353;BMP180;54238;52.278;21.056;2022-10-17T00:39:50;101370.80;;;16.90
67353;BMP180;54238;52.278;21.056;2022-10-17T00:42:22;101377.00;;;16.90
67353;BMP180;54238;52.278;21.056;2022-10-17T00:45:09;101378.20;;;16.90
67353;BMP180;54238;52.278;21.056;2022-10-17T00:47:45;101384.60;;;16.90
67353;BMP180;54238;52.278;21.056;2022-10-17T00:50:14;101387.00;;;16.88
67353;BMP180;54238;52.278;21.056;2022-10-17T00:52:46;101394.60;;;16.90
67353;BMP180;54238;52.278;21.056;2022-10-17T00:55:23;101392.60;;;16.90
67353;BMP180;54238;52.278;21.056;2022-10-17T00:57:57;101392.00;;;16.90
67353;BMP180;54238;52.278;21.056;2022-10-17T01:00:33;101386.60;;;16.90
67353;BMP180;54238;52.278;21.056;2022-10-17T01:03:00;101379.80;;;16.86
67353;BMP180;54238;52.278;21.056;2022-10-17T01:05:28;101380.40;;;16.80
67353;BMP180;54238;52.278;21.056;2022-10-17T01:08:01;101387.20;;;16.80
67353;BMP180;54238;52.278;21.056;2022-10-17T01:10:44;101384.00;;;16.70
67353;BMP180;54238;52.278;21.056;2022-10-17T01:13:41;101380.20;;;16.70
67353;BMP180;54238;52.278;21.056;2022-10-17T01:19:15;101385.80;;;16.40
67353;BMP180;54238;52.278;21.056;2022-10-17T01:22:48;101389.00;;;16.30
67353;BMP180;54238;52.278;21.056;2022-10-17T01:31:24;101382.00;;;15.90
67353;BMP180;54238;52.278;21.056;2022-10-17T01:34:01;101377.60;;;15.70
67353;BMP180;54238;52.278;21.056;2022-10-17T01:39:22;101369.00;;;15.60
67353;BMP180;54238;52.278;21.056;2022-10-17T01:44:38;101376.60;;;15.56
67353;BMP180;54238;52.278;21.056;2022-10-17T01:47:13;101375.80;;;15.50
67353;BMP180;54238;52.278;21.056;2022-10-17T01:49:44;101381.60;;;15.50
67353;BMP180;54238;52.278;21.056;2022-10-17T01:52:25;101376.80;;;15.46
67353;BMP180;54238;52.278;21.056;2022-10-17T01:55:15;101377.60;;;15.40
67353;BMP180;54238;52.278;21.056;2022-10-17T02:00:51;101375.80;;;15.30
67353;BMP180;54238;52.278;21.056;2022-10-17T02:03:23;101381.00;;;15.30
67353;BMP180;54238;52.278;21.056;2022-10-17T02:05:55;101387.80;;;15.30
67353;BMP180;54238;52.278;21.056;2022-10-17T02:08:42;101387.20;;;15.20
67353;BMP180;54238;52.278;21.056;2022-10-17T02:11:25;101390.00;;;15.20
67353;BMP180;54238;52.278;21.056;2022-10-17T02:19:54;101389.00;;;15.10
67353;BMP180;54238;52.278;21.056;2022-10-17T02:22:48;101387.00;;;15.10
67353;BMP180;54238;52.278;21.056;2022-10-17T02:25:36;101390.00;;;15.02
67353;BMP180;54238;52.278;21.056;2022-10-17T02:28:32;101389.00;;;15.00
67353;BMP180;54238;52.278;21.056;2022-10-17T02:31:19;101389.80;;;15.00
67353;BMP180;54238;52.278;21.056;2022-10-17T02:33:57;101392.60;;;14.90
67353;BMP180;54238;52.278;21.056;2022-10-17T02:36:34;101397.20;;;14.90
67353;BMP180;54238;52.278;21.056;2022-10-17T02:39:09;101400.20;;;14.90
67353;BMP180;54238;52.278;21.056;2022-10-17T02:41:41;101406.20;;;14.84
67353;BMP180;54238;52.278;21.056;2022-10-17T02:44:12;101410.40;;;14.80
67353;BMP180;54238;52.278;21.056;2022-10-17T02:46:58;101408.80;;;14.82
67353;BMP180;54238;52.278;21.056;2022-10-17T02:49:33;101409.00;;;14.80
67353;BMP180;54238;52.278;21.056;2022-10-17T02:52:38;101419.60;;;14.78
67353;BMP180;54238;52.278;21.056;2022-10-17T02:55:19;101421.40;;;14.70
67353;BMP180;54238;52.278;21.056;2022-10-17T02:58:11;101420.40;;;14.70
67353;BMP180;54238;52.278;21.056;2022-10-17T03:00:43;101427.00;;;14.70
67353;BMP180;54238;52.278;21.056;2022-10-17T03:03:25;101432.20;;;14.70
67353;BMP180;54238;52.278;21.056;2022-10-17T03:05:53;101439.80;;;14.70
67353;BMP180;54238;52.278;21.056;2022-10-17T03:08:23;101445.00;;;14.70
67353;BMP180;54238;52.278;21.056;2022-10-17T03:10:50;101446.40;;;14.70
67353;BMP180;54238;52.278;21.056;2022-10-17T03:13:18;101457.20;;;14.70
67353;BMP180;54238;52.278;21.056;2022-10-17T03:15:45;101457.40;;;14.70
67353;BMP180;54238;52.278;21.056;2022-10-17T03:18:12;101453.80;;;14.70
67353;BMP180;54238;52.278;21.056;2022-10-17T03:20:44;101447.60;;;14.70
67353;BMP180;54238;52.278;21.056;2022-10-17T03:23:10;101453.40;;;14.70
67353;BMP180;54238;52.278;21.056;2022-10-17T03:25:42;101453.80;;;14.70
67353;BMP180;54238;52.278;21.056;2022-10-17T03:28:16;101453.80;;;14.62
67353;BMP180;54238;52.278;21.056;2022-10-17T03:30:46;101458.00;;;14.62
67353;BMP180;54238;52.278;21.056;2022-10-17T03:33:41;101458.80;;;14.60
67353;BMP180;54238;52.278;21.056;2022-10-17T03:36:15;101461.80;;;14.60
67353;BMP180;54238;52.278;21.056;2022-10-17T03:38:43;101464.20;;;14.60
67353;BMP180;54238;52.278;21.056;2022-10-17T03:41:12;101466.20;;;14.60
67353;BMP180;54238;52.278;21.056;2022-10-17T03:43:45;101462.60;;;14.60
67353;BMP180;54238;52.278;21.056;2022-10-17T03:46:14;101459.60;;;14.60
67353;BMP180;54238;52.278;21.056;2022-10-17T03:49:10;101455.60;;;14.60
67353;BMP180;54238;52.278;21.056;2022-10-17T03:51:45;101453.00;;;14.60
67353;BMP180;54238;52.278;21.056;2022-10-17T03:54:29;101450.40;;;14.60
67353;BMP180;54238;52.278;21.056;2022-10-17T03:56:56;101453.00;;;14.60
67353;BMP180;54238;52.278;21.056;2022-10-17T03:59:23;101453.60;;;14.60
67353;BMP180;54238;52.278;21.056;2022-10-17T04:01:50;101452.60;;;14.60
67353;BMP180;54238;52.278;21.056;2022-10-17T04:04:24;101457.80;;;14.60
67353;BMP180;54238;52.278;21.056;2022-10-17T04:06:58;101463.40;;;14.60
67353;BMP180;54238;52.278;21.056;2022-10-17T04:09:51;101461.60;;;14.60
67353;BMP180;54238;52.278;21.056;2022-10-17T04:12:23;101463.80;;;14.60
67353;BMP180;54238;52.278;21.056;2022-10-17T04:14:54;101464.60;;;14.60
67353;BMP180;54238;52.278;21.056;2022-10-17T04:17:24;101469.20;;;14.60
67353;BMP180;54238;52.278;21.056;2022-10-17T04:19:51;101476.20;;;14.60
67353;BMP180;54238;52.278;21.056;2022-10-17T04:22:24;101480.40;;;14.60
67353;BMP180;54238;52.278;21.056;2022-10-17T04:25:17;101478.20;;;14.70
67353;BMP180;54238;52.278;21.056;2022-10-17T04:27:46;101476.20;;;14.62
67353;BMP180;54238;52.278;21.056;2022-10-17T04:30:16;101474.80;;;14.68
67353;BMP180;54238;52.278;21.056;2022-10-17T04:32:45;101475.80;;;14.70
67353;BMP180;54238;52.278;21.056;2022-10-17T04:35:32;101472.20;;;14.70
67353;BMP180;54238;52.278;21.056;2022-10-17T04:38:23;101475.00;;;14.70
67353;BMP180;54238;52.278;21.056;2022-10-17T04:41:03;101479.80;;;14.70
67353;BMP180;54238;52.278;21.056;2022-10-17T04:43:33;101480.60;;;14.70
67353;BMP180;54238;52.278;21.056;2022-10-17T04:46:10;101483.20;;;14.70
67353;BMP180;54238;52.278;21.056;2022-10-17T04:48:40;101478.40;;;14.60
67353;BMP180;54238;52.278;21.056;2022-10-17T04:51:16;101486.80;;;14.62
67353;BMP180;54238;52.278;21.056;2022-10-17T04:53:49;101490.20;;;14.70
67353;BMP180;54238;52.278;21.056;2022-10-17T04:56:22;101497.80;;;14.70
67353;BMP180;54238;52.278;21.056;2022-10-17T04:58:52;101501.00;;;14.70
67353;BMP180;54238;52.278;21.056;2022-10-17T05:01:25;101496.00;;;14.70
67353;BMP180;54238;52.278;21.056;2022-10-17T05:03:52;101496.80;;;14.70
67353;BMP180;54238;52.278;21.056;2022-10-17T05:06:27;101505.60;;;14.70
67353;BMP180;54238;52.278;21.056;2022-10-17T05:09:19;101509.00;;;14.70
67353;BMP180;54238;52.278;21.056;2022-10-17T05:11:48;101520.60;;;14.70
67353;BMP180;54238;52.278;21.056;2022-10-17T05:14:15;101525.00;;;14.70
67353;BMP180;54238;52.278;21.056;2022-10-17T05:16:49;101526.40;;;14.70
67353;BMP180;54238;52.278;21.056;2022-10-17T05:19:18;101533.40;;;14.70
67353;BMP180;54238;52.278;21.056;2022-10-17T05:21:49;101536.20;;;14.72
67353;BMP180;54238;52.278;21.056;2022-10-17T05:24:21;101532.60;;;14.70
67353;BMP180;54238;52.278;21.056;2022-10-17T05:26:59;101524.60;;;14.80
67353;BMP180;54238;52.278;21.056;2022-10-17T05:29:30;101512.60;;;14.80
67353;BMP180;54238;52.278;21.056;2022-10-17T05:31:57;101523.60;;;14.74
67353;BMP180;54238;52.278;21.056;2022-10-17T05:34:27;101532.80;;;14.70
67353;BMP180;54238;52.278;21.056;2022-10-17T05:36:54;101538.80;;;14.70
67353;BMP180;54238;52.278;21.056;2022-10-17T05:39:20;101546.80;;;14.70
67353;BMP180;54238;52.278;21.056;2022-10-17T05:41:50;101556.00;;;14.70
67353;BMP180;54238;52.278;21.056;2022-10-17T05:44:18;101557.00;;;14.70
67353;BMP180;54238;52.278;21.056;2022-10-17T05:46:52;101564.40;;;14.70
67353;BMP180;54238;52.278;21.056;2022-10-17T05:49:23;101565.00;;;14.70
67353;BMP180;54238;52.278;21.056;2022-10-17T05:51:50;101569.00;;;14.80
67353;BMP180;54238;52.278;21.056;2022-10-17T05:54:22;101571.00;;;14.80
67353;BMP180;54238;52.278;21.056;2022-10-17T05:56:55;101571.40;;;14.80
67353;BMP180;54238;52.278;21.056;2022-10-17T05:59:25;101575.60;;;14.80
67353;BMP180;54238;52.278;21.056;2022-10-17T06:02:00;101578.00;;;14.80
67353;BMP180;54238;52.278;21.056;2022-10-17T06:04:30;101575.40;;;14.90
67353;BMP180;54238;52.278;21.056;2022-10-17T06:06:59;101572.20;;;14.90
67353;BMP180;54238;52.278;21.056;2022-10-17T06:09:29;101570.60;;;15.00
67353;BMP180;54238;52.278;21.056;2022-10-17T06:11:56;101569.60;;;15.00
67353;BMP180;54238;52.278;21.056;2022-10-17T06:14:22;101568.80;;;15.00
67353;BMP180;54238;52.278;21.056;2022-10-17T06:16:52;101579.40;;;15.10
67353;BMP180;54238;52.278;21.056;2022-10-17T06:19:21;101583.40;;;15.10
67353;BMP180;54238;52.278;21.056;2022-10-17T06:21:53;101584.80;;;15.20
67353;BMP180;54238;52.278;21.056;2022-10-17T06:24:22;101588.20;;;15.20
67353;BMP180;54238;52.278;21.056;2022-10-17T06:26:51;101581.20;;;15.26
67353;BMP180;54238;52.278;21.056;2022-10-17T06:29:23;101575.00;;;15.30
67353;BMP180;54238;52.278;21.056;2022-10-17T06:31:53;101579.00;;;15.30
67353;BMP180;54238;52.278;21.056;2022-10-17T06:34:25;101582.40;;;15.36
67353;BMP180;54238;52.278;21.056;2022-10-17T06:36:57;101587.40;;;15.40
67353;BMP180;54238;52.278;21.056;2022-10-17T06:39:26;101593.60;;;15.40
67353;BMP180;54238;52.278;21.056;2022-10-17T06:42:00;101596.20;;;15.44
67353;BMP180;54238;52.278;21.056;2022-10-17T06:44:34;101601.60;;;15.50
67353;BMP180;54238;52.278;21.056;2022-10-17T06:47:01;101600.40;;;15.60
67353;BMP180;54238;52.278;21.056;2022-10-17T06:49:30;101595.20;;;15.66
67353;BMP180;54238;52.278;21.056;2022-10-17T06:52:00;101600.80;;;15.70
67353;BMP180;54238;52.278;21.056;2022-10-17T06:54:27;101608.00;;;15.80
67353;BMP180;54238;52.278;21.056;2022-10-17T06:56:58;101609.20;;;15.86
67353;BMP180;54238;52.278;21.056;2022-10-17T06:59:28;101616.80;;;15.90
67353;BMP180;54238;52.278;21.056;2022-10-17T07:01:55;101627.00;;;16.00
67353;BMP180;54238;52.278;21.056;2022-10-17T07:04:22;101623.80;;;16.02
67353;BMP180;54238;52.278;21.056;2022-10-17T07:06:51;101622.40;;;16.10
67353;BMP180;54238;52.278;21.056;2022-10-17T07:09:18;101616.20;;;16.16
67353;BMP180;54238;52.278;21.056;2022-10-17T07:11:45;101618.60;;;16.20
67353;BMP180;54238;52.278;21.056;2022-10-17T07:14:15;101620.40;;;16.30
67353;BMP180;54238;52.278;21.056;2022-10-17T07:16:44;101623.40;;;16.40
67353;BMP180;54238;52.278;21.056;2022-10-17T07:19:14;101625.40;;;16.50
67353;BMP180;54238;52.278;21.056;2022-10-17T07:21:45;101623.40;;;16.60
67353;BMP180;54238;52.278;21.056;2022-10-17T07:24:12;101624.80;;;16.70
67353;BMP180;54238;52.278;21.056;2022-10-17T07:26:42;101627.80;;;16.80
67353;BMP180;54238;52.278;21.056;2022-10-17T07:29:10;101625.80;;;16.90
67353;BMP180;54238;52.278;21.056;2022-10-17T07:31:42;101629.00;;;17.00
67353;BMP180;54238;52.278;21.056;2022-10-17T07:34:18;101631.00;;;17.20
67353;BMP180;54238;52.278;21.056;2022-10-17T07:36:47;101625.80;;;17.30
67353;BMP180;54238;52.278;21.056;2022-10-17T07:39:16;101631.40;;;17.42
67353;BMP180;54238;52.278;21.056;2022-10-17T07:41:48;101633.20;;;17.58
67353;BMP180;54238;52.278;21.056;2022-10-17T07:44:19;101642.20;;;17.68
67353;BMP180;54238;52.278;21.056;2022-10-17T07:46:49;101643.60;;;17.70
67353;BMP180;54238;52.278;21.056;2022-10-17T07:49:20;101647.20;;;17.80
67353;BMP180;54238;52.278;21.056;2022-10-17T07:51:47;101645.60;;;17.90
67353;BMP180;54238;52.278;21.056;2022-10-17T07:54:15;101646.80;;;18.00
67353;BMP180;54238;52.278;21.056;2022-10-17T07:56:47;101651.60;;;18.18
67353;BMP180;54238;52.278;21.056;2022-10-17T07:59:17;101656.40;;;18.30
67353;BMP180;54238;52.278;21.056;2022-10-17T08:01:47;101667.20;;;18.50
67353;BMP180;54238;52.278;21.056;2022-10-17T08:04:19;101669.80;;;18.62
67353;BMP180;54238;52.278;21.056;2022-10-17T08:06:49;101672.40;;;18.70
67353;BMP180;54238;52.278;21.056;2022-10-17T08:09:21;101675.60;;;18.70
67353;BMP180;54238;52.278;21.056;2022-10-17T08:11:50;101676.80;;;18.72
67353;BMP180;54238;52.278;21.056;2022-10-17T08:14:17;101676.00;;;18.70
67353;BMP180;54238;52.278;21.056;2022-10-17T08:16:47;101680.00;;;18.70
67353;BMP180;54238;52.278;21.056;2022-10-17T08:19:16;101681.00;;;18.80
67353;BMP180;54238;52.278;21.056;2022-10-17T08:21:45;101676.80;;;18.80
67353;BMP180;54238;52.278;21.056;2022-10-17T08:24:15;101675.20;;;18.90
67353;BMP180;54238;52.278;21.056;2022-10-17T08:26:45;101673.40;;;18.90
67353;BMP180;54238;52.278;21.056;2022-10-17T08:29:18;101676.40;;;18.96
67353;BMP180;54238;52.278;21.056;2022-10-17T08:31:45;101677.20;;;19.06
67353;BMP180;54238;52.278;21.056;2022-10-17T08:34:12;101674.40;;;19.10
67353;BMP180;54238;52.278;21.056;2022-10-17T08:36:41;101670.60;;;19.20
67353;BMP180;54238;52.278;21.056;2022-10-17T08:39:11;101668.60;;;19.32
67353;BMP180;54238;52.278;21.056;2022-10-17T08:44:50;101664.80;;;19.86
67353;BMP180;54238;52.278;21.056;2022-10-17T08:50:30;101664.20;;;20.58
67353;BMP180;54238;52.278;21.056;2022-10-17T08:55:53;101669.80;;;21.48
67353;BMP180;54238;52.278;21.056;2022-10-17T08:58:28;101666.00;;;21.90
67353;BMP180;54238;52.278;21.056;2022-10-17T09:12:44;101662.60;;;23.80
67353;BMP180;54238;52.278;21.056;2022-10-17T09:15:56;101657.60;;;24.10
67353;BMP180;54238;52.278;21.056;2022-10-17T09:18:37;101656.60;;;24.52
67353;BMP180;54238;52.278;21.056;2022-10-17T09:23:54;101661.20;;;25.10
67353;BMP180;54238;52.278;21.056;2022-10-17T09:26:25;101660.40;;;25.42
67353;BMP180;54238;52.278;21.056;2022-10-17T09:28:59;101658.00;;;25.80
67353;BMP180;54238;52.278;21.056;2022-10-17T09:31:36;101662.40;;;26.20
67353;BMP180;54238;52.278;21.056;2022-10-17T09:34:09;101668.80;;;26.40
67353;BMP180;54238;52.278;21.056;2022-10-17T09:36:42;101663.80;;;26.30
67353;BMP180;54238;52.278;21.056;2022-10-17T09:39:18;101660.60;;;26.48
67353;BMP180;54238;52.278;21.056;2022-10-17T09:41:53;101666.60;;;26.80
67353;BMP180;54238;52.278;21.056;2022-10-17T09:47:11;101670.00;;;27.10
67353;BMP180;54238;52.278;21.056;2022-10-17T09:49:44;101663.40;;;27.34
67353;BMP180;54238;52.278;21.056;2022-10-17T09:52:16;101663.60;;;27.60
67353;BMP180;54238;52.278;21.056;2022-10-17T09:54:57;101661.60;;;27.80
67353;BMP180;54238;52.278;21.056;2022-10-17T09:57:25;101661.00;;;27.90
67353;BMP180;54238;52.278;21.056;2022-10-17T10:00:03;101655.80;;;27.90
67353;BMP180;54238;52.278;21.056;2022-10-17T10:02:31;101656.00;;;27.90
67353;BMP180;54238;52.278;21.056;2022-10-17T10:05:19;101653.00;;;28.04
67353;BMP180;54238;52.278;21.056;2022-10-17T10:08:10;101647.60;;;28.30
67353;BMP180;54238;52.278;21.056;2022-10-17T10:10:42;101643.00;;;28.60
67353;BMP180;54238;52.278;21.056;2022-10-17T10:15:47;101650.40;;;29.20
67353;BMP180;54238;52.278;21.056;2022-10-17T10:21:20;101648.60;;;29.84
67353;BMP180;54238;52.278;21.056;2022-10-17T10:26:46;101645.80;;;30.30
67353;BMP180;54238;52.278;21.056;2022-10-17T10:29:34;101642.80;;;30.46
67353;BMP180;54238;52.278;21.056;2022-10-17T10:34:41;101651.20;;;30.80
67353;BMP180;54238;52.278;21.056;2022-10-17T10:37:24;101653.20;;;30.90
67353;BMP180;54238;52.278;21.056;2022-10-17T10:42:32;101657.60;;;31.40
67353;BMP180;54238;52.278;21.056;2022-10-17T10:48:09;101653.60;;;31.60
67353;BMP180;54238;52.278;21.056;2022-10-17T10:56:30;101644.80;;;31.72
67353;BMP180;54238;52.278;21.056;2022-10-17T11:07:16;101646.80;;;31.60
67353;BMP180;54238;52.278;21.056;2022-10-17T11:10:04;101646.60;;;31.52
67353;BMP180;54238;52.278;21.056;2022-10-17T11:26:52;101637.40;;;31.70
67353;BMP180;54238;52.278;21.056;2022-10-17T11:29:31;101645.80;;;31.70
67353;BMP180;54238;52.278;21.056;2022-10-17T11:35:01;101647.20;;;31.60
67353;BMP180;54238;52.278;21.056;2022-10-17T11:37:39;101646.00;;;31.50
67353;BMP180;54238;52.278;21.056;2022-10-17T11:40:18;101649.00;;;31.34
67353;BMP180;54238;52.278;21.056;2022-10-17T11:43:05;101648.80;;;31.30
67353;BMP180;54238;52.278;21.056;2022-10-17T11:45:47;101648.60;;;31.58
67353;BMP180;54238;52.278;21.056;2022-10-17T11:48:27;101650.80;;;31.94
67353;BMP180;54238;52.278;21.056;2022-10-17T11:51:11;101648.60;;;32.20
67353;BMP180;54238;52.278;21.056;2022-10-17T11:53:55;101643.60;;;32.60
67353;BMP180;54238;52.278;21.056;2022-10-17T12:00:02;101658.80;;;33.00
67353;BMP180;54238;52.278;21.056;2022-10-17T12:02:52;101657.00;;;33.30
67353;BMP180;54238;52.278;21.056;2022-10-17T12:05:38;101661.00;;;33.72
67353;BMP180;54238;52.278;21.056;2022-10-17T12:08:46;101659.80;;;33.90
67353;BMP180;54238;52.278;21.056;2022-10-17T12:13:55;101662.00;;;34.50
67353;BMP180;54238;52.278;21.056;2022-10-17T12:19:31;101661.60;;;34.26
67353;BMP180;54238;52.278;21.056;2022-10-17T12:22:18;101661.80;;;33.48
67353;BMP180;54238;52.278;21.056;2022-10-17T12:25:01;101659.80;;;32.70
67353;BMP180;54238;52.278;21.056;2022-10-17T12:27:43;101653.60;;;31.70
67353;BMP180;54238;52.278;21.056;2022-10-17T12:32:57;101650.60;;;31.22
67353;BMP180;54238;52.278;21.056;2022-10-17T12:35:28;101645.40;;;30.70
67353;BMP180;54238;52.278;21.056;2022-10-17T12:45:56;101630.40;;;32.76
67353;BMP180;54238;52.278;21.056;2022-10-17T12:56:41;101625.00;;;32.32
67353;BMP180;54238;52.278;21.056;2022-10-17T12:59:28;101617.80;;;32.00
67353;BMP180;54238;52.278;21.056;2022-10-17T13:02:07;101613.60;;;31.80
67353;BMP180;54238;52.278;21.056;2022-10-17T13:04:43;101609.20;;;32.00
67353;BMP180;54238;52.278;21.056;2022-10-17T13:07:20;101614.20;;;32.20
67353;BMP180;54238;52.278;21.056;2022-10-17T13:09:52;101613.60;;;32.40
67353;BMP180;54238;52.278;21.056;2022-10-17T13:12:24;101622.20;;;32.50
67353;BMP180;54238;52.278;21.056;2022-10-17T13:15:05;101623.00;;;32.48
67353;BMP180;54238;52.278;21.056;2022-10-17T13:17:35;101620.00;;;32.44
67353;BMP180;54238;52.278;21.056;2022-10-17T13:20:20;101618.40;;;32.50
67353;BMP180;54238;52.278;21.056;2022-10-17T13:22:51;101623.00;;;32.50
67353;BMP180;54238;52.278;21.056;2022-10-17T13:25:19;101627.80;;;32.40
67353;BMP180;54238;52.278;21.056;2022-10-17T13:28:06;101618.20;;;32.20
67353;BMP180;54238;52.278;21.056;2022-10-17T13:30:35;101617.80;;;32.30
67353;BMP180;54238;52.278;21.056;2022-10-17T13:33:28;101614.00;;;32.20
67353;BMP180;54238;52.278;21.056;2022-10-17T13:36:05;101620.00;;;32.10
67353;BMP180;54238;52.278;21.056;2022-10-17T13:38:35;101620.80;;;31.90
67353;BMP180;54238;52.278;21.056;2022-10-17T13:41:13;101615.80;;;31.80
67353;BMP180;54238;52.278;21.056;2022-10-17T13:43:41;101612.00;;;31.60
67353;BMP180;54238;52.278;21.056;2022-10-17T13:46:28;101611.80;;;31.30
67353;BMP180;54238;52.278;21.056;2022-10-17T13:49:17;101603.60;;;31.00
67353;BMP180;54238;52.278;21.056;2022-10-17T13:51:52;101604.40;;;30.62
67353;BMP180;54238;52.278;21.056;2022-10-17T13:54:38;101602.20;;;30.44
67353;BMP180;54238;52.278;21.056;2022-10-17T13:57:37;101605.80;;;30.20
67353;BMP180;54238;52.278;21.056;2022-10-17T14:00:20;101604.80;;;29.90
67353;BMP180;54238;52.278;21.056;2022-10-17T14:02:48;101603.40;;;29.50
67353;BMP180;54238;52.278;21.056;2022-10-17T14:05:23;101598.60;;;29.30
67353;BMP180;54238;52.278;21.056;2022-10-17T14:08:00;101595.40;;;29.10
67353;BMP180;54238;52.278;21.056;2022-10-17T14:10:35;101596.60;;;28.90
67353;BMP180;54238;52.278;21.056;2022-10-17T14:13:13;101595.20;;;28.70
67353;BMP180;54238;52.278;21.056;2022-10-17T14:15:45;101590.80;;;28.32
67353;BMP180;54238;52.278;21.056;2022-10-17T14:18:23;101587.60;;;28.00
67353;BMP180;54238;52.278;21.056;2022-10-17T14:20:56;101588.00;;;27.80
67353;BMP180;54238;52.278;21.056;2022-10-17T14:28:42;101584.20;;;26.70
67353;BMP180;54238;52.278;21.056;2022-10-17T14:31:21;101581.20;;;26.36
67353;BMP180;54238;52.278;21.056;2022-10-17T14:33:52;101572.60;;;26.10
67353;BMP180;54238;52.278;21.056;2022-10-17T14:36:37;101566.20;;;25.80
67353;BMP180;54238;52.278;21.056;2022-10-17T14:39:07;101567.00;;;25.56
67353;BMP180;54238;52.278;21.056;2022-10-17T14:41:47;101565.40;;;25.28
67353;BMP180;54238;52.278;21.056;2022-10-17T14:44:26;101566.00;;;25.00
67353;BMP180;54238;52.278;21.056;2022-10-17T14:47:05;101562.20;;;24.80
67353;BMP180;54238;52.278;21.056;2022-10-17T14:49:39;101561.80;;;24.58
67353;BMP180;54238;52.278;21.056;2022-10-17T14:54:48;101563.40;;;24.20
67353;BMP180;54238;52.278;21.056;2022-10-17T14:57:33;101560.20;;;24.00
67353;BMP180;54238;52.278;21.056;2022-10-17T15:00:00;101559.60;;;23.90
67353;BMP180;54238;52.278;21.056;2022-10-17T15:02:28;101558.80;;;23.70
67353;BMP180;54238;52.278;21.056;2022-10-17T15:04:55;101562.20;;;23.60
67353;BMP180;54238;52.278;21.056;2022-10-17T15:07:22;101564.40;;;23.50
67353;BMP180;54238;52.278;21.056;2022-10-17T15:09:55;101564.80;;;23.40
67353;BMP180;54238;52.278;21.056;2022-10-17T15:12:27;101565.00;;;23.30
67353;BMP180;54238;52.278;21.056;2022-10-17T15:14:54;101559.80;;;23.20
67353;BMP180;54238;52.278;21.056;2022-10-17T15:17:30;101555.40;;;23.10
67353;BMP180;54238;52.278;21.056;2022-10-17T15:20:12;101556.80;;;23.10
67353;BMP180;54238;52.278;21.056;2022-10-17T15:22:47;101559.40;;;23.10
67353;BMP180;54238;52.278;21.056;2022-10-17T15:25:20;101563.40;;;23.10
67353;BMP180;54238;52.278;21.056;2022-10-17T15:27:50;101566.00;;;23.00
67353;BMP180;54238;52.278;21.056;2022-10-17T15:30:29;101564.60;;;22.90
67353;BMP180;54238;52.278;21.056;2022-10-17T15:32:58;101564.60;;;22.70
67353;BMP180;54238;52.278;21.056;2022-10-17T15:35:30;101563.20;;;22.60
67353;BMP180;54238;52.278;21.056;2022-10-17T15:37:59;101565.00;;;22.50
67353;BMP180;54238;52.278;21.056;2022-10-17T15:40:34;101562.60;;;22.40
67353;BMP180;54238;52.278;21.056;2022-10-17T15:43:03;101555.80;;;22.28
67353;BMP180;54238;52.278;21.056;2022-10-17T15:45:34;101556.20;;;22.16
67353;BMP180;54238;52.278;21.056;2022-10-17T15:48:05;101554.20;;;22.02
67353;BMP180;54238;52.278;21.056;2022-10-17T15:50:35;101553.00;;;21.96
67353;BMP180;54238;52.278;21.056;2022-10-17T15:53:10;101551.40;;;21.90
67353;BMP180;54238;52.278;21.056;2022-10-17T15:55:40;101556.60;;;21.80
67353;BMP180;54238;52.278;21.056;2022-10-17T15:58:14;101557.80;;;21.78
67353;BMP180;54238;52.278;21.056;2022-10-17T16:00:42;101558.20;;;21.70
67353;BMP180;54238;52.278;21.056;2022-10-17T16:03:11;101558.20;;;21.64
67353;BMP180;54238;52.278;21.056;2022-10-17T16:05:42;101551.20;;;21.60
67353;BMP180;54238;52.278;21.056;2022-10-17T16:08:09;101548.20;;;21.50
67353;BMP180;54238;52.278;21.056;2022-10-17T16:10:39;101550.60;;;21.50
67353;BMP180;54238;52.278;21.056;2022-10-17T16:13:23;101546.80;;;21.40
67353;BMP180;54238;52.278;21.056;2022-10-17T16:15:53;101548.60;;;21.40
67353;BMP180;54238;52.278;21.056;2022-10-17T16:18:24;101552.60;;;21.30
67353;BMP180;54238;52.278;21.056;2022-10-17T16:20:54;101547.80;;;21.30
67353;BMP180;54238;52.278;21.056;2022-10-17T16:23:20;101545.40;;;21.20
67353;BMP180;54238;52.278;21.056;2022-10-17T16:25:50;101538.40;;;21.20
67353;BMP180;54238;52.278;21.056;2022-10-17T16:28:23;101539.20;;;21.10
67353;BMP180;54238;52.278;21.056;2022-10-17T16:30:49;101537.80;;;21.04
67353;BMP180;54238;52.278;21.056;2022-10-17T16:33:19;101531.80;;;21.00
67353;BMP180;54238;52.278;21.056;2022-10-17T16:35:46;101531.80;;;20.92
67353;BMP180;54238;52.278;21.056;2022-10-17T16:38:15;101534.20;;;20.90